Terminal Aerodrome Forecast
Issued by NWS Chicago, IL

Home | Current Version | Previous Version | Graphics & Text | Print | Product List | Glossary On
Versions: 1 2 3 4 5 6 7 8 9 10 11 12 13 14 15 16 17 18 19 20 21 22 23 24 25 26 27
180
FTUS43 KLOT 210300 AAA
TAFRFD
TAF AMD
KRFD 210300Z 2103/2124 14005KT P6SM VCTS SCT040CB BKN100
     FM210400 17005KT P6SM FEW040 SCT120 BKN250
     FM211200 20008KT P6SM SHRA VCTS BKN035 OVC060CB
     FM211600 21008KT P6SM SCT050 BKN150=

USA.gov is the U.S. government's official web portal to all federal, state and local government web resources and services.